Time;durP1;ratioP1;P1;durP2;ratioP2;P2;SDS_P1;SDS_P2;PMS_P1;PMS_P2;Temp;Humidity;BMP_temperature;BMP_pressure;BME280_temperature;BME280_humidity;BME280_pressure;Samples;Min_cycle;Max_cycle;Signal;HPM_P1;HPM_P2
2021/03/22 00:01:05;;;;;;;24.45;3.25;;;4.80;99.90;;;;;;6269368;22;20003;-64
2021/03/22 00:03:32;;;;;;;15.88;3.42;;;4.70;99.90;;;;;;6268887;22;20034;-67
2021/03/22 00:05:59;;;;;;;17.30;3.50;;;4.70;99.90;;;;;;6242749;22;20054;-66
2021/03/22 00:08:25;;;;;;;20.63;3.33;;;4.70;99.90;;;;;;6242795;22;20004;-64
2021/03/22 00:10:52;;;;;;;18.92;3.90;;;4.70;99.90;;;;;;6270044;22;20006;-65
2021/03/22 00:13:21;;;;;;;27.25;4.28;;;4.70;99.90;;;;;;6242651;22;20435;-65
2021/03/22 00:15:52;;;;;;;10.85;2.65;;;4.60;99.90;;;;;;6271425;22;20424;-64
2021/03/22 00:18:21;;;;;;;27.92;5.10;;;4.80;99.90;;;;;;6270483;22;20039;-64
2021/03/22 00:20:48;;;;;;;13.63;3.03;;;4.60;99.90;;;;;;6245225;22;20031;-67
2021/03/22 00:23:14;;;;;;;9.88;2.08;;;4.70;99.90;;;;;;6244635;22;20080;-67
2021/03/22 00:25:40;;;;;;;18.85;3.75;;;4.60;99.90;;;;;;6269699;22;20015;-64
2021/03/22 00:28:06;;;;;;;17.30;3.38;;;4.60;99.90;;;;;;6270215;22;20390;-64
2021/03/22 00:30:35;;;;;;;20.38;3.80;;;4.60;99.90;;;;;;6267585;22;20423;-64
2021/03/22 00:33:02;;;;;;;14.43;3.13;;;4.60;99.90;;;;;;6269270;22;20000;-66
2021/03/22 00:35:28;;;;;;;16.33;2.88;;;4.50;99.90;;;;;;6269350;22;20043;-63
2021/03/22 00:37:55;;;;;;;16.63;3.20;;;4.50;99.90;;;;;;6270317;22;20501;-64
2021/03/22 00:40:24;;;;;;;19.50;3.58;;;4.60;99.90;;;;;;6268475;22;20007;-64
2021/03/22 00:42:50;;;;;;;20.30;3.65;;;4.60;99.90;;;;;;6240196;22;20000;-66
2021/03/22 00:45:18;;;;;;;20.42;2.75;;;4.50;99.90;;;;;;6244097;22;20018;-69
2021/03/22 00:47:44;;;;;;;17.92;3.92;;;4.50;99.90;;;;;;6184490;23;20056;-67
2021/03/22 00:50:18;;;;;;;15.85;3.47;;;4.60;99.90;;;;;;6181273;23;20005;-67
2021/03/22 00:52:43;;;;;;;15.95;4.10;;;4.60;99.90;;;;;;6205755;23;20011;-65
2021/03/22 00:55:09;;;;;;;20.75;4.45;;;4.50;99.90;;;;;;6204342;23;20028;-64
2021/03/22 00:57:35;;;;;;;11.93;2.75;;;4.50;99.90;;;;;;6204627;23;20103;-64
2021/03/22 01:00:01;;;;;;;17.95;3.60;;;4.50;99.90;;;;;;6204011;23;20376;-64
2021/03/22 01:02:26;;;;;;;11.27;2.70;;;4.60;99.90;;;;;;6206161;23;20043;-64
2021/03/22 01:04:52;;;;;;;33.47;3.92;;;4.60;99.90;;;;;;6208284;23;20023;-64
2021/03/22 01:07:19;;;;;;;12.88;2.47;;;4.50;99.90;;;;;;6207161;23;20005;-65
2021/03/22 01:09:45;;;;;;;20.13;4.03;;;4.60;99.90;;;;;;6208891;23;20009;-63
2021/03/22 01:12:12;;;;;;;13.50;2.72;;;4.60;99.90;;;;;;6206271;23;20026;-65
2021/03/22 01:14:38;;;;;;;17.88;3.42;;;4.60;99.90;;;;;;6209275;23;20090;-64
2021/03/22 01:17:05;;;;;;;18.27;3.88;;;4.70;99.90;;;;;;6209949;23;20044;-67
2021/03/22 01:19:32;;;;;;;20.42;3.15;;;4.70;99.90;;;;;;6180149;23;19997;-67
2021/03/22 01:22:01;;;;;;;13.50;2.72;;;4.60;99.90;;;;;;6182391;23;20015;-67
2021/03/22 01:24:31;;;;;;;16.42;2.60;;;4.60;99.90;;;;;;6217537;22;20015;-66
2021/03/22 01:27:01;;;;;;;25.05;3.85;;;4.60;99.90;;;;;;6272890;22;20008;-68
2021/03/22 01:29:31;;;;;;;9.95;3.10;;;4.70;99.90;;;;;;6246266;22;20011;-67
2021/03/22 01:31:59;;;;;;;;;;;4.70;99.90;;;;;;6244879;22;20092;-66
2021/03/22 01:34:26;;;;;;;17.90;2.88;;;4.60;99.90;;;;;;6270438;22;20220;-67
2021/03/22 01:36:51;;;;;;;22.20;3.67;;;4.60;99.90;;;;;;6268912;22;20016;-64
2021/03/22 01:39:23;;;;;;;24.05;3.92;;;4.60;99.90;;;;;;6266939;22;20007;-64
2021/03/22 01:41:55;;;;;;;21.85;3.22;;;4.70;99.90;;;;;;6269716;22;20026;-66
2021/03/22 01:44:27;;;;;;;15.43;3.05;;;4.60;99.90;;;;;;6267970;22;20050;-67
2021/03/22 01:46:58;;;;;;;16.05;3.10;;;4.60;99.90;;;;;;6242476;22;20340;-66
2021/03/22 01:49:28;;;;;;;12.00;2.67;;;4.70;99.90;;;;;;6269669;22;20003;-65
2021/03/22 01:51:55;;;;;;;27.42;3.35;;;4.60;99.90;;;;;;6271149;22;19996;-66
2021/03/22 01:54:21;;;;;;;19.20;3.28;;;4.60;99.90;;;;;;6271211;22;20075;-65
2021/03/22 01:56:52;;;;;;;11.13;1.95;;;4.60;99.90;;;;;;6270547;22;20442;-64
2021/03/22 01:59:27;;;;;;;18.38;2.97;;;4.70;99.90;;;;;;6271139;22;20003;-64
2021/03/22 02:01:58;;;;;;;18.95;3.67;;;4.60;99.90;;;;;;6244324;22;20078;-64
2021/03/22 02:04:26;;;;;;;14.15;3.25;;;4.60;99.90;;;;;;6271045;22;20510;-66
2021/03/22 02:06:52;;;;;;;8.27;1.90;;;4.70;99.90;;;;;;6244135;22;20058;-66
2021/03/22 02:09:18;;;;;;;23.58;3.10;;;4.60;99.90;;;;;;6270852;22;20008;-66
2021/03/22 02:11:44;;;;;;;15.30;3.00;;;4.50;99.90;;;;;;6270572;22;20025;-67
2021/03/22 02:14:11;;;;;;;14.48;3.08;;;4.50;99.90;;;;;;6269695;22;20011;-67
2021/03/22 02:16:50;;;;;;;20.75;3.20;;;4.60;99.90;;;;;;6242201;22;20655;-67
2021/03/22 02:19:30;;;;;;;26.85;3.85;;;4.50;99.90;;;;;;6242432;22;20012;-67
2021/03/22 02:22:18;;;;;;;7.22;2.10;;;4.60;99.90;;;;;;6241357;22;20088;-66
2021/03/22 02:25:22;;;;;;;15.38;3.03;;;4.60;99.90;;;;;;6268591;22;20014;-64
2021/03/22 02:28:40;;;;;;;12.30;3.10;;;4.60;99.90;;;;;;6241642;22;20498;-65
2021/03/22 02:31:08;;;;;;;7.75;1.65;;;4.60;99.90;;;;;;6217972;22;20034;-64
2021/03/22 02:34:08;;;;;;;12.98;2.70;;;4.60;99.90;;;;;;6268276;22;20004;-64
2021/03/22 02:37:03;;;;;;;17.10;2.80;;;4.70;99.90;;;;;;6268197;22;20499;-67
2021/03/22 02:39:43;;;;;;;10.50;3.17;;;4.60;99.90;;;;;;6268220;22;20014;-65
2021/03/22 02:42:11;;;;;;;17.05;3.25;;;4.60;99.90;;;;;;6269904;22;20045;-65
2021/03/22 02:44:37;;;;;;;18.77;3.95;;;4.60;99.90;;;;;;6267551;22;20012;-64
2021/03/22 02:47:18;;;;;;;7.63;1.73;;;4.60;99.90;;;;;;6270263;22;20048;-65
2021/03/22 02:49:44;;;;;;;11.52;2.58;;;4.60;99.90;;;;;;6269437;22;19999;-64
2021/03/22 02:52:23;;;;;;;10.55;2.45;;;4.70;99.90;;;;;;6269852;22;20152;-64
2021/03/22 02:54:53;;;;;;;5.88;1.58;;;4.70;99.90;;;;;;6269433;22;20008;-64
2021/03/22 02:57:23;;;;;;;;;;;4.60;99.90;;;;;;6269989;22;20037;-66
2021/03/22 02:59:58;;;;;;;26.85;3.40;;;4.60;99.90;;;;;;6269997;22;19986;-64
2021/03/22 03:02:27;;;;;;;18.90;4.07;;;4.60;99.90;;;;;;6241788;22;20337;-67
2021/03/22 03:04:53;;;;;;;16.27;3.03;;;4.60;99.90;;;;;;6269181;22;20122;-66
2021/03/22 03:07:23;;;;;;;19.75;3.42;;;4.60;99.90;;;;;;6268835;22;20420;-63
2021/03/22 03:09:49;;;;;;;18.63;3.85;;;4.50;99.90;;;;;;6270113;22;20014;-64
2021/03/22 03:12:26;;;;;;;19.80;3.38;;;4.70;99.90;;;;;;6269612;22;20032;-66
2021/03/22 03:14:55;;;;;;;20.48;3.15;;;4.70;99.90;;;;;;6269979;22;20360;-67
2021/03/22 03:17:22;;;;;;;18.58;2.85;;;4.60;99.90;;;;;;6269004;22;20132;-66
2021/03/22 03:19:49;;;;;;;12.70;2.58;;;4.70;99.90;;;;;;6241921;22;20083;-63
2021/03/22 03:22:15;;;;;;;15.68;2.78;;;4.70;99.90;;;;;;6269888;22;20014;-66
2021/03/22 03:24:41;;;;;;;15.32;3.03;;;4.60;99.90;;;;;;6269301;22;20016;-68
2021/03/22 03:27:08;;;;;;;13.32;2.25;;;4.60;99.90;;;;;;6269156;22;20018;-66
2021/03/22 03:29:34;;;;;;;13.43;3.03;;;4.60;99.90;;;;;;6268938;22;20004;-66
2021/03/22 03:32:00;;;;;;;11.93;2.78;;;4.60;99.90;;;;;;6269687;22;20003;-66
2021/03/22 03:34:26;;;;;;;19.80;3.65;;;4.60;99.90;;;;;;6268009;22;20003;-64
2021/03/22 03:36:52;;;;;;;18.38;3.20;;;4.60;99.90;;;;;;6269924;22;20377;-64
2021/03/22 03:39:18;;;;;;;9.82;2.55;;;4.70;99.90;;;;;;6240577;22;20018;-64
2021/03/22 03:41:43;;;;;;;16.98;3.13;;;4.70;99.90;;;;;;6240499;22;20011;-67
2021/03/22 03:44:11;;;;;;;14.95;2.90;;;4.70;99.90;;;;;;6268958;22;20012;-66
2021/03/22 03:46:38;;;;;;;20.88;3.90;;;4.70;99.90;;;;;;6268320;22;19996;-66
2021/03/22 03:49:05;;;;;;;15.45;2.97;;;4.70;99.90;;;;;;6242053;22;20018;-66
2021/03/22 03:51:31;;;;;;;14.07;3.70;;;4.70;99.90;;;;;;6241261;22;20000;-66
2021/03/22 03:53:58;;;;;;;15.32;3.28;;;4.70;99.90;;;;;;6270054;22;20023;-66
2021/03/22 03:56:25;;;;;;;18.85;4.53;;;4.80;99.90;;;;;;6269742;22;20428;-67
2021/03/22 03:58:51;;;;;;;12.18;3.40;;;4.70;99.90;;;;;;6268246;22;20000;-66
2021/03/22 04:01:17;;;;;;;17.13;3.08;;;4.70;99.90;;;;;;6269796;22;20463;-66
2021/03/22 04:03:42;;;;;;;12.30;3.40;;;4.70;99.90;;;;;;6268077;22;20007;-68
2021/03/22 04:06:16;;;;;;;13.00;2.40;;;4.50;99.90;;;;;;6269813;22;20430;-67
2021/03/22 04:08:45;;;;;;;13.20;3.28;;;4.60;99.90;;;;;;6268341;22;20006;-66
2021/03/22 04:11:15;;;;;;;18.80;4.20;;;4.60;99.90;;;;;;6241586;22;20432;-66
2021/03/22 04:13:41;;;;;;;;;;;4.60;99.90;;;;;;6270459;22;20010;-64
2021/03/22 04:16:08;;;;;;;13.68;3.78;;;4.60;99.90;;;;;;6271651;22;20322;-66
2021/03/22 04:18:36;;;;;;;21.10;4.90;;;4.50;99.90;;;;;;6270367;22;20197;-66
2021/03/22 04:21:04;;;;;;;17.10;3.95;;;4.50;99.90;;;;;;6270963;22;20412;-67
2021/03/22 04:23:30;;;;;;;15.13;2.95;;;4.50;99.90;;;;;;6270178;22;20015;-66
2021/03/22 04:25:56;;;;;;;23.60;4.88;;;4.50;99.90;;;;;;6271929;22;20004;-66
2021/03/22 04:28:21;;;;;;;16.15;4.65;;;4.40;99.90;;;;;;6271272;22;20444;-66
2021/03/22 04:30:47;;;;;;;20.90;5.20;;;4.30;99.90;;;;;;6243251;22;20018;-65
2021/03/22 04:33:13;;;;;;;22.75;5.10;;;4.20;99.90;;;;;;6270349;22;20571;-67
2021/03/22 04:35:38;;;;;;;19.73;3.90;;;4.30;99.90;;;;;;6270356;22;20031;-66
2021/03/22 04:38:04;;;;;;;17.48;4.35;;;4.40;99.90;;;;;;6271288;22;20597;-65
2021/03/22 04:40:30;;;;;;;18.58;5.00;;;4.30;99.90;;;;;;6243673;22;20589;-66
2021/03/22 04:42:56;;;;;;;13.70;3.75;;;4.30;99.90;;;;;;6271187;22;20024;-67
2021/03/22 04:45:26;;;;;;;22.08;6.85;;;4.50;99.90;;;;;;6271383;22;20012;-65
2021/03/22 04:47:52;;;;;;;24.38;4.82;;;4.30;99.90;;;;;;6270191;22;20000;-67
2021/03/22 04:50:19;;;;;;;25.05;6.35;;;4.20;99.90;;;;;;6270544;22;20545;-64
2021/03/22 04:52:45;;;;;;;22.35;4.82;;;4.30;99.90;;;;;;6270857;22;20054;-65
2021/03/22 04:55:11;;;;;;;15.90;5.07;;;4.20;99.90;;;;;;6243900;22;20007;-64
2021/03/22 04:57:37;;;;;;;20.70;4.90;;;4.30;99.90;;;;;;6270442;22;20011;-64
2021/03/22 05:00:13;;;;;;;26.85;8.77;;;4.20;99.90;;;;;;6243541;22;20008;-64
2021/03/22 05:02:39;;;;;;;23.20;5.25;;;4.30;99.90;;;;;;6270019;22;20600;-63
2021/03/22 05:05:06;;;;;;;15.70;4.68;;;4.30;99.90;;;;;;6271245;22;20025;-66
2021/03/22 05:07:32;;;;;;;23.02;5.50;;;4.30;99.90;;;;;;6269930;22;20442;-66
2021/03/22 05:09:58;;;;;;;15.23;4.15;;;4.30;99.90;;;;;;6271242;22;20012;-66
2021/03/22 05:12:23;;;;;;;17.90;5.00;;;4.20;99.90;;;;;;6271371;22;20003;-66
2021/03/22 05:14:49;;;;;;;19.33;6.10;;;4.30;99.90;;;;;;6240453;22;20012;-67
2021/03/22 05:17:15;;;;;;;16.23;4.35;;;4.30;99.90;;;;;;6269856;22;20278;-66
2021/03/22 05:19:40;;;;;;;21.40;5.45;;;4.20;99.90;;;;;;6268522;22;20466;-67
2021/03/22 05:22:06;;;;;;;16.88;5.97;;;4.20;99.90;;;;;;6241966;22;20094;-68
2021/03/22 05:24:32;;;;;;;20.52;6.68;;;4.20;99.90;;;;;;6266549;22;20340;-66
2021/03/22 05:26:58;;;;;;;19.48;5.97;;;4.30;99.90;;;;;;6269398;22;20015;-66
2021/03/22 05:29:25;;;;;;;13.75;5.05;;;4.30;99.90;;;;;;6269978;22;20008;-66
2021/03/22 05:31:52;;;;;;;28.17;7.18;;;4.30;99.90;;;;;;6267582;22;19995;-66
2021/03/22 05:34:17;;;;;;;15.55;3.97;;;4.10;99.90;;;;;;6243036;22;20432;-66
2021/03/22 05:36:43;;;;;;;23.45;6.43;;;4.30;99.90;;;;;;6269662;22;20012;-64
2021/03/22 05:39:09;;;;;;;25.00;6.22;;;4.30;99.90;;;;;;6270735;22;20082;-66
2021/03/22 05:42:00;;;;;;;27.63;7.53;;;4.20;99.90;;;;;;6242664;22;20004;-66
2021/03/22 05:44:48;;;;;;;36.22;8.25;;;4.10;99.90;;;;;;6269866;22;20007;-67
2021/03/22 05:47:16;;;;;;;24.15;5.75;;;4.10;99.90;;;;;;6242487;22;19999;-64
2021/03/22 05:49:49;;;;;;;24.05;7.63;;;4.30;99.90;;;;;;6269237;22;20074;-64
2021/03/22 05:52:29;;;;;;;31.40;7.18;;;4.20;99.90;;;;;;6270827;22;20010;-66
2021/03/22 05:55:13;;;;;;;30.80;8.43;;;4.30;99.90;;;;;;6269721;22;20007;-65
2021/03/22 05:57:51;;;;;;;16.35;5.40;;;4.20;99.90;;;;;;6270035;22;20431;-63
2021/03/22 06:00:26;;;;;;;20.70;4.93;;;4.40;99.90;;;;;;6242816;22;20003;-65
2021/03/22 06:03:06;;;;;;;29.73;7.40;;;4.30;99.90;;;;;;6269580;22;20435;-67
2021/03/22 06:05:32;;;;;;;;;;;4.40;99.90;;;;;;6242274;22;20413;-64
2021/03/22 06:08:29;;;;;;;20.73;5.53;;;4.40;99.90;;;;;;6268749;22;19941;-65
2021/03/22 06:10:56;;;;;;;23.63;7.50;;;4.30;99.90;;;;;;6186648;22;20075;-67
2021/03/22 06:13:36;;;;;;;26.13;7.45;;;4.10;99.90;;;;;;6274046;22;20404;-63
2021/03/22 06:16:18;;;;;;;32.97;10.82;;;4.40;99.90;;;;;;6246119;22;20007;-68
2021/03/22 06:18:54;;;;;;;34.00;7.82;;;4.30;99.90;;;;;;6273070;22;20374;-65
2021/03/22 06:21:24;;;;;;;27.27;7.90;;;4.40;99.90;;;;;;6246043;22;20011;-69
2021/03/22 06:23:50;;;;;;;22.40;7.15;;;4.40;99.90;;;;;;6245850;22;20042;-67
2021/03/22 06:26:19;;;;;;;26.25;8.30;;;4.40;99.90;;;;;;6272997;22;20416;-67
2021/03/22 06:28:54;;;;;;;26.90;6.53;;;4.40;99.90;;;;;;6270900;22;20015;-67
2021/03/22 06:31:22;;;;;;;32.08;7.53;;;4.50;99.90;;;;;;6246524;22;20010;-69
2021/03/22 06:33:58;;;;;;;23.58;6.88;;;4.50;99.90;;;;;;6270187;22;20424;-68
2021/03/22 06:36:25;;;;;;;30.73;7.63;;;4.50;99.90;;;;;;6269242;22;20092;-66
2021/03/22 06:38:54;;;;;;;23.25;7.82;;;4.50;99.90;;;;;;6270085;22;20003;-65
2021/03/22 06:41:38;;;;;;;27.10;7.80;;;4.60;99.90;;;;;;6271611;22;20009;-65
2021/03/22 06:44:21;;;;;;;29.95;8.68;;;4.60;99.90;;;;;;6271169;22;20019;-65
2021/03/22 06:47:00;;;;;;;24.52;7.22;;;4.70;99.90;;;;;;6269721;22;20000;-65
2021/03/22 06:49:30;;;;;;;20.20;7.28;;;4.80;99.90;;;;;;6271616;22;20046;-67
2021/03/22 06:52:01;;;;;;;25.08;7.88;;;4.70;99.90;;;;;;6239863;22;20010;-66
2021/03/22 06:54:49;;;;;;;22.88;5.30;;;4.60;99.90;;;;;;6271509;22;20003;-65
2021/03/22 06:57:28;;;;;;;25.98;8.25;;;4.80;99.90;;;;;;6243936;22;20004;-66
2021/03/22 07:00:12;;;;;;;26.30;5.72;;;4.80;99.90;;;;;;6270475;22;20363;-67
2021/03/22 07:02:58;;;;;;;19.60;7.50;;;4.80;99.90;;;;;;6270757;22;20529;-66
2021/03/22 07:05:24;;;;;;;24.10;7.38;;;4.90;99.90;;;;;;6269282;22;20020;-62
2021/03/22 07:08:01;;;;;;;24.50;8.02;;;4.80;99.90;;;;;;6270460;22;20000;-63
2021/03/22 07:10:32;;;;;;;30.33;9.18;;;4.90;99.90;;;;;;6241343;22;20012;-63
2021/03/22 07:13:04;;;;;;;20.13;6.70;;;5.00;99.90;;;;;;6269511;22;20023;-63
2021/03/22 07:15:35;;;;;;;25.40;7.65;;;5.30;99.90;;;;;;6272356;22;20113;-63
2021/03/22 07:18:02;;;;;;;27.85;7.75;;;5.40;99.90;;;;;;6272109;22;20320;-64
2021/03/22 07:20:28;;;;;;;27.67;7.40;;;5.30;99.90;;;;;;6243202;22;20446;-63
2021/03/22 07:23:33;;;;;;;26.90;8.63;;;5.20;99.90;;;;;;6242838;22;20018;-64
2021/03/22 07:26:31;;;;;;;19.15;6.40;;;5.30;99.90;;;;;;6265240;22;20015;-65
2021/03/22 07:29:07;;;;;;;20.67;7.28;;;5.30;99.90;;;;;;6232025;22;20332;-63
2021/03/22 07:31:51;;;;;;;25.42;7.00;;;5.50;99.90;;;;;;6243280;22;20012;-62
2021/03/22 07:34:45;;;;;;;16.88;5.68;;;5.60;99.90;;;;;;6271315;22;19999;-63
2021/03/22 07:37:19;;;;;;;24.67;6.25;;;5.70;99.90;;;;;;6271293;22;20018;-62
2021/03/22 07:40:11;;;;;;;21.27;8.15;;;5.80;99.90;;;;;;6271196;22;20818;-64
2021/03/22 07:42:51;;;;;;;18.27;6.55;;;5.70;99.90;;;;;;6266357;22;20339;-63
2021/03/22 07:45:36;;;;;;;21.75;4.10;;;5.90;99.90;;;;;;6268919;22;20008;-64
2021/03/22 07:48:29;;;;;;;13.32;5.65;;;6.00;99.90;;;;;;6272041;22;20031;-65
2021/03/22 07:51:23;;;;;;;19.27;5.80;;;6.00;99.90;;;;;;6272424;22;19999;-65
2021/03/22 07:53:56;;;;;;;15.90;4.38;;;6.10;99.90;;;;;;6246112;22;20087;-64
2021/03/22 07:56:36;;;;;;;14.02;4.18;;;6.40;99.90;;;;;;6273946;22;20024;-62
2021/03/22 07:59:32;;;;;;;16.27;4.10;;;6.30;99.90;;;;;;6271425;22;20007;-61
2021/03/22 08:02:16;;;;;;;12.43;4.22;;;6.40;99.90;;;;;;6271886;22;20115;-62
2021/03/22 08:05:06;;;;;;;13.93;4.97;;;6.40;99.90;;;;;;6271163;22;20051;-65
2021/03/22 08:08:28;;;;;;;12.00;3.58;;;6.00;99.90;;;;;;6272811;22;20083;-65
2021/03/22 08:11:08;;;;;;;12.38;3.75;;;6.20;99.90;;;;;;6210112;23;20065;-64
2021/03/22 08:13:49;;;;;;;14.57;3.13;;;6.40;99.90;;;;;;6238799;23;20031;-63
2021/03/22 08:16:34;;;;;;;12.77;3.65;;;6.60;99.90;;;;;;6214060;23;20428;-64
2021/03/22 08:19:23;;;;;;;16.83;3.58;;;6.40;99.90;;;;;;6238733;23;20008;-64
2021/03/22 08:21:59;;;;;;;14.35;3.05;;;6.40;99.90;;;;;;6238243;23;20016;-64
2021/03/22 08:25:04;;;;;;;10.65;2.90;;;6.40;99.90;;;;;;6239212;23;20480;-64
2021/03/22 08:27:33;;;;;;;12.18;3.22;;;6.30;99.90;;;;;;6238474;23;20012;-64
2021/03/22 08:30:26;;;;;;;11.30;2.80;;;6.30;99.90;;;;;;6236714;23;20008;-62
2021/03/22 08:33:06;;;;;;;8.18;2.22;;;6.60;99.90;;;;;;6237509;23;20087;-64
2021/03/22 08:35:56;;;;;;;9.57;2.47;;;6.60;99.90;;;;;;6237803;23;20882;-64
2021/03/22 08:38:36;;;;;;;10.43;2.28;;;6.50;99.90;;;;;;6239479;23;20083;-64
2021/03/22 08:41:03;;;;;;;9.70;2.33;;;6.50;99.90;;;;;;6248231;22;20038;-64
2021/03/22 08:43:52;;;;;;;8.85;2.50;;;6.70;99.90;;;;;;6275918;22;20030;-64
2021/03/22 08:46:49;;;;;;;10.05;1.90;;;6.80;99.90;;;;;;6273706;22;20012;-64
2021/03/22 08:49:43;;;;;;;7.80;2.10;;;6.60;99.90;;;;;;6248993;22;20016;-64
2021/03/22 08:52:24;;;;;;;7.95;1.80;;;6.70;99.90;;;;;;6247907;22;20019;-64
2021/03/22 08:55:01;;;;;;;8.70;2.22;;;6.40;99.90;;;;;;6248503;22;20010;-65
2021/03/22 08:57:31;;;;;;;8.98;1.83;;;6.20;99.90;;;;;;6273001;22;20018;-65
2021/03/22 09:00:27;;;;;;;12.35;2.38;;;6.30;99.90;;;;;;6246378;22;20010;-65
2021/03/22 09:03:00;;;;;;;7.88;2.20;;;6.40;99.90;;;;;;6274562;22;20000;-65
2021/03/22 09:05:30;;;;;;;10.27;2.63;;;6.30;99.90;;;;;;6247121;22;20054;-65
2021/03/22 09:08:32;;;;;;;8.50;2.80;;;6.40;99.90;;;;;;6272141;22;20000;-62
2021/03/22 09:11:14;;;;;;;9.27;2.13;;;6.40;99.90;;;;;;6235207;23;20004;-65
2021/03/22 09:13:59;;;;;;;6.43;2.05;;;6.60;99.90;;;;;;6269334;22;20305;-65
2021/03/22 09:16:25;;;;;;;6.85;2.17;;;6.60;99.90;;;;;;6272708;22;20004;-64
2021/03/22 09:19:09;;;;;;;7.10;1.98;;;6.40;99.90;;;;;;6271722;22;20004;-64
2021/03/22 09:21:35;;;;;;;8.75;2.35;;;6.40;99.90;;;;;;6272632;22;20054;-63
2021/03/22 09:24:01;;;;;;;10.52;2.25;;;6.40;99.90;;;;;;6271551;22;20012;-64
2021/03/22 09:26:59;;;;;;;8.32;2.33;;;6.30;99.90;;;;;;6273293;22;20038;-64
2021/03/22 09:29:36;;;;;;;10.82;3.58;;;6.30;99.90;;;;;;6272794;22;20432;-64
2021/03/22 09:32:23;;;;;;;13.35;3.10;;;6.10;99.90;;;;;;6272000;22;20006;-64
2021/03/22 09:34:50;;;;;;;9.00;3.33;;;6.30;99.90;;;;;;6270042;22;20008;-64
2021/03/22 09:37:54;;;;;;;8.07;2.65;;;6.50;99.90;;;;;;6243877;22;20016;-64
2021/03/22 09:40:19;;;;;;;11.43;3.50;;;6.40;99.90;;;;;;6272578;22;20008;-63
2021/03/22 09:43:04;;;;;;;14.52;3.35;;;6.50;99.90;;;;;;6271377;22;20023;-64
2021/03/22 09:45:49;;;;;;;11.75;3.40;;;6.40;99.90;;;;;;6272522;22;20440;-63
2021/03/22 09:48:20;;;;;;;7.75;2.60;;;6.10;99.90;;;;;;6272553;22;20015;-64
2021/03/22 09:50:50;;;;;;;9.43;3.13;;;6.20;99.90;;;;;;6271326;22;20027;-64
2021/03/22 09:53:22;;;;;;;;;;;6.20;99.90;;;;;;6274877;22;19999;-64
2021/03/22 09:56:04;;;;;;;8.85;2.65;;;6.40;99.90;;;;;;6271898;22;19899;-64
2021/03/22 09:58:38;;;;;;;9.02;3.00;;;6.40;99.90;;;;;;6272373;22;20099;-63
2021/03/22 10:01:25;;;;;;;7.80;2.55;;;6.20;99.90;;;;;;6270754;22;20332;-64
2021/03/22 10:04:31;;;;;;;8.43;2.63;;;6.30;99.90;;;;;;6270800;22;20058;-64
2021/03/22 10:07:02;;;;;;;9.38;2.70;;;6.40;99.90;;;;;;6212622;23;20008;-64
2021/03/22 10:09:53;;;;;;;9.98;2.40;;;6.70;99.90;;;;;;6210151;23;20158;-64
2021/03/22 10:12:39;;;;;;;9.93;2.80;;;7.00;99.90;;;;;;6237419;23;20040;-63
2021/03/22 10:15:09;;;;;;;13.40;3.15;;;6.90;99.90;;;;;;6217760;23;20011;-64
2021/03/22 10:17:40;;;;;;;8.45;2.70;;;6.90;99.90;;;;;;6239526;23;20069;-64
2021/03/22 10:20:38;;;;;;;7.88;2.13;;;6.80;99.90;;;;;;6240407;23;20354;-64
2021/03/22 10:23:28;;;;;;;9.18;2.55;;;6.50;99.90;;;;;;6213033;23;20115;-61
2021/03/22 10:26:26;;;;;;;7.60;2.08;;;6.50;99.90;;;;;;6239165;23;20019;-63
2021/03/22 10:29:13;;;;;;;7.43;2.30;;;6.60;99.90;;;;;;6238407;23;20057;-63
2021/03/22 10:31:40;;;;;;;6.18;2.17;;;6.60;99.90;;;;;;6239080;23;20031;-62
2021/03/22 10:34:06;;;;;;;8.77;2.35;;;6.80;99.90;;;;;;6239398;23;20004;-63
2021/03/22 10:36:38;;;;;;;8.05;2.55;;;6.90;99.90;;;;;;6239869;22;20030;-63
2021/03/22 10:39:06;;;;;;;10.00;2.53;;;6.90;99.90;;;;;;6271782;22;20329;-63
2021/03/22 10:41:43;;;;;;;8.95;2.95;;;7.10;99.90;;;;;;6270188;22;20007;-63
2021/03/22 10:44:14;;;;;;;7.60;2.00;;;7.10;99.90;;;;;;6244649;22;20018;-64
2021/03/22 10:46:41;;;;;;;7.55;2.20;;;7.30;99.90;;;;;;6270434;22;20075;-64
2021/03/22 10:49:20;;;;;;;9.40;2.45;;;7.50;99.90;;;;;;6271271;22;20000;-63
2021/03/22 10:51:51;;;;;;;8.05;1.83;;;7.50;99.90;;;;;;6268715;22;20000;-63
2021/03/22 10:54:20;;;;;;;7.00;2.05;;;7.60;99.90;;;;;;6271102;22;19999;-62
2021/03/22 10:56:45;;;;;;;6.88;2.17;;;7.70;99.90;;;;;;6241982;22;20015;-63
2021/03/22 10:59:36;;;;;;;7.80;2.03;;;7.60;99.90;;;;;;6269318;22;20025;-62
2021/03/22 11:02:28;;;;;;;8.23;1.90;;;7.50;99.90;;;;;;6264858;22;20006;-63
2021/03/22 11:04:55;;;;;;;7.13;2.25;;;7.60;99.90;;;;;;6253335;22;20420;-62
2021/03/22 11:07:27;;;;;;;7.65;2.13;;;7.80;99.90;;;;;;6270914;22;20061;-63
2021/03/22 11:10:02;;;;;;;7.72;1.90;;;7.60;99.90;;;;;;6268411;22;20450;-63
2021/03/22 11:12:31;;;;;;;6.82;2.30;;;7.60;99.90;;;;;;6271390;22;19999;-63
2021/03/22 11:15:07;;;;;;;10.95;2.40;;;7.70;99.90;;;;;;6270133;22;20003;-63
2021/03/22 11:17:33;;;;;;;5.15;1.85;;;7.80;99.90;;;;;;6270942;22;20000;-63
2021/03/22 11:20:04;;;;;;;6.15;1.70;;;7.80;99.90;;;;;;6268687;22;20007;-63
2021/03/22 11:22:35;;;;;;;9.40;2.45;;;7.90;99.90;;;;;;6244754;22;20011;-63
2021/03/22 11:25:02;;;;;;;8.27;2.17;;;7.50;99.90;;;;;;6271047;22;20035;-63
2021/03/22 11:27:56;;;;;;;6.30;2.15;;;8.00;99.90;;;;;;6273010;22;20080;-63
2021/03/22 11:30:33;;;;;;;7.43;2.45;;;8.10;99.90;;;;;;6272439;22;20087;-63
2021/03/22 11:32:59;;;;;;;9.93;2.47;;;8.10;99.90;;;;;;6271657;22;19996;-63
2021/03/22 11:35:30;;;;;;;9.82;3.22;;;8.20;99.90;;;;;;6272244;22;20007;-63
2021/03/22 11:38:00;;;;;;;9.63;2.78;;;8.20;99.90;;;;;;6271021;22;20444;-63
2021/03/22 11:40:30;;;;;;;10.63;3.35;;;8.20;99.90;;;;;;6272498;22;19996;-64
2021/03/22 11:42:55;;;;;;;10.98;3.10;;;8.00;99.90;;;;;;6244339;22;20012;-63
2021/03/22 11:45:41;;;;;;;6.00;2.13;;;8.00;99.90;;;;;;6272448;22;20091;-63
2021/03/22 11:48:19;;;;;;;8.73;2.65;;;8.00;99.90;;;;;;6272519;22;20024;-63
2021/03/22 11:50:47;;;;;;;12.30;3.40;;;7.90;99.90;;;;;;6244477;22;20424;-63
2021/03/22 11:53:18;;;;;;;8.82;3.25;;;7.90;99.90;;;;;;6272395;22;20006;-63
2021/03/22 11:55:55;;;;;;;10.05;3.30;;;7.90;99.90;;;;;;6271429;22;20045;-63
2021/03/22 11:58:38;;;;;;;9.38;2.60;;;8.10;99.90;;;;;;6271960;22;20427;-64
2021/03/22 12:01:31;;;;;;;11.93;3.53;;;7.90;99.90;;;;;;6271384;22;20004;-63
2021/03/22 12:04:05;;;;;;;11.48;2.90;;;7.90;99.90;;;;;;6269597;22;20057;-62
2021/03/22 12:06:33;;;;;;;13.32;3.15;;;7.80;99.90;;;;;;6245784;22;20061;-63
2021/03/22 12:08:58;;;;;;;10.00;2.53;;;7.60;99.90;;;;;;6245902;22;20000;-64
2021/03/22 12:11:26;;;;;;;6.68;2.13;;;7.60;99.90;;;;;;6271563;22;20328;-64
2021/03/22 12:13:57;;;;;;;6.88;2.10;;;7.50;99.90;;;;;;6244759;22;20547;-63
2021/03/22 12:16:26;;;;;;;6.03;2.22;;;7.60;99.90;;;;;;6245466;22;20054;-63
2021/03/22 12:18:53;;;;;;;9.65;2.30;;;7.70;99.90;;;;;;6272590;22;20061;-63
2021/03/22 12:21:20;;;;;;;8.32;1.90;;;7.50;99.90;;;;;;6274928;22;20362;-63
2021/03/22 12:23:46;;;;;;;7.50;2.22;;;7.50;99.90;;;;;;6245028;22;20000;-63
2021/03/22 12:26:18;;;;;;;6.10;1.65;;;7.60;99.90;;;;;;6274732;22;20065;-63
2021/03/22 12:28:54;;;;;;;6.95;1.95;;;8.00;99.90;;;;;;6247105;22;19999;-64
2021/03/22 12:31:30;;;;;;;9.45;2.50;;;8.00;99.90;;;;;;6247374;22;20385;-64
2021/03/22 12:34:02;;;;;;;5.85;1.50;;;7.90;99.90;;;;;;6272050;22;20006;-63
2021/03/22 12:36:28;;;;;;;7.88;2.15;;;8.10;99.90;;;;;;6272479;22;20022;-63
2021/03/22 12:38:54;;;;;;;6.88;2.00;;;7.90;99.90;;;;;;6272257;22;20033;-64
2021/03/22 12:41:32;;;;;;;7.50;1.80;;;7.80;99.90;;;;;;6272332;22;20008;-64
2021/03/22 12:44:00;;;;;;;7.45;2.20;;;7.70;99.90;;;;;;6246068;22;20039;-64
2021/03/22 12:46:26;;;;;;;6.53;2.17;;;7.70;99.90;;;;;;6272842;22;20024;-64
2021/03/22 12:48:52;;;;;;;6.43;1.85;;;7.90;99.90;;;;;;6245051;22;20011;-64
2021/03/22 12:51:18;;;;;;;7.20;2.38;;;8.10;99.90;;;;;;6272565;22;20331;-65
2021/03/22 12:53:44;;;;;;;6.53;2.38;;;7.90;99.90;;;;;;6273218;22;20022;-63
2021/03/22 12:56:14;;;;;;;8.40;2.00;;;8.20;99.90;;;;;;6243993;22;20463;-64
2021/03/22 12:58:40;;;;;;;8.90;2.28;;;8.00;99.90;;;;;;6269698;22;20416;-64
2021/03/22 13:01:06;;;;;;;7.50;2.08;;;7.90;99.90;;;;;;6271995;22;20007;-64
2021/03/22 13:03:32;;;;;;;9.50;2.35;;;8.40;99.90;;;;;;6246897;22;20434;-64
2021/03/22 13:05:58;;;;;;;11.27;2.25;;;8.70;99.90;;;;;;6273067;22;20039;-64
2021/03/22 13:08:28;;;;;;;8.95;2.90;;;8.90;99.90;;;;;;6274034;22;20000;-64
2021/03/22 13:10:55;;;;;;;7.75;3.50;;;8.70;99.90;;;;;;6245191;22;20052;-64
2021/03/22 13:13:21;;;;;;;9.80;3.60;;;9.20;99.90;;;;;;6245959;22;20000;-64
2021/03/22 13:15:52;;;;;;;9.82;3.63;;;8.90;99.90;;;;;;6270938;22;20008;-64
2021/03/22 13:18:25;;;;;;;12.70;5.00;;;8.70;99.90;;;;;;6272331;22;20000;-63
2021/03/22 13:20:58;;;;;;;10.98;4.75;;;8.90;99.90;;;;;;6268749;22;20027;-64
2021/03/22 13:23:25;;;;;;;13.35;5.10;;;8.70;99.90;;;;;;6270336;22;19999;-64